Time;durP1;ratioP1;P1;durP2;ratioP2;P2;SDS_P1;SDS_P2;PMS_P1;PMS_P2;Temp;Humidity;BMP_temperature;BMP_pressure;BME280_temperature;BME280_humidity;BME280_pressure;Samples;Min_cycle;Max_cycle;Signal;HPM_P1;HPM_P2
2023/07/10 00:00:51;;;;;;;6.33;4.47;;;;;;;22.58;100.00;100246.84;4984036;28;20230;-64
2023/07/10 00:03:18;;;;;;;6.80;4.50;;;;;;;22.58;100.00;100244.22;5001730;28;20757;-64
2023/07/10 00:05:43;;;;;;;9.70;4.30;;;;;;;22.59;100.00;100240.59;4990396;28;20206;-64
2023/07/10 00:08:08;;;;;;;8.63;4.40;;;;;;;22.53;100.00;100228.97;4987500;28;20628;-63
2023/07/10 00:10:33;;;;;;;6.10;4.50;;;;;;;22.49;100.00;100228.47;4985402;28;20227;-64
2023/07/10 00:12:59;;;;;;;9.67;4.90;;;;;;;22.33;100.00;100238.84;5002429;28;20175;-64
2023/07/10 00:15:24;;;;;;;7.50;4.90;;;;;;;22.37;100.00;100234.94;4991498;28;20529;-65
2023/07/10 00:17:51;;;;;;;7.67;4.93;;;;;;;22.39;100.00;100236.44;4992161;28;20196;-64
2023/07/10 00:20:23;;;;;;;9.70;5.00;;;;;;;22.37;100.00;100229.69;4983484;28;20222;-65
2023/07/10 00:22:48;;;;;;;6.60;3.97;;;;;;;22.38;100.00;100234.78;5004559;28;20235;-66
2023/07/10 00:25:17;;;;;;;11.10;4.43;;;;;;;22.39;100.00;100233.81;4991891;28;20191;-65
2023/07/10 00:27:44;;;;;;;5.70;4.43;;;;;;;22.37;100.00;100241.00;5004463;28;20222;-66
2023/07/10 00:30:21;;;;;;;8.73;4.27;;;;;;;22.33;100.00;100241.47;5004425;28;20258;-64
2023/07/10 00:32:52;;;;;;;6.37;4.47;;;;;;;22.28;100.00;100236.69;5013676;28;20210;-64
2023/07/10 00:35:17;;;;;;;8.70;4.90;;;;;;;22.26;100.00;100230.78;5014030;28;20206;-65
2023/07/10 00:38:01;;;;;;;5.07;4.27;;;;;;;22.15;100.00;100241.53;5005729;28;20258;-65
2023/07/10 00:40:31;;;;;;;4.80;3.63;;;;;;;22.14;100.00;100240.72;4985400;28;20228;-64
2023/07/10 00:43:10;;;;;;;7.27;4.23;;;;;;;22.10;100.00;100249.84;5012796;28;20182;-63
2023/07/10 00:45:35;;;;;;;18.70;4.73;;;;;;;22.17;100.00;100242.22;5013834;28;20667;-64
2023/07/10 00:48:19;;;;;;;5.97;4.43;;;;;;;22.07;100.00;100234.47;5013910;28;20203;-64
2023/07/10 00:50:48;;;;;;;4.57;4.07;;;;;;;22.04;100.00;100240.00;5009281;28;20284;-64
2023/07/10 00:53:24;;;;;;;9.00;4.53;;;;;;;21.91;100.00;100243.84;4999011;28;20186;-63
2023/07/10 00:55:52;;;;;;;8.30;4.30;;;;;;;21.86;100.00;100237.44;5012766;28;20701;-64
2023/07/10 00:58:24;;;;;;;5.97;4.07;;;;;;;21.77;100.00;100241.81;5013575;28;20256;-65
2023/07/10 01:01:09;;;;;;;8.60;4.70;;;;;;;21.87;100.00;100234.66;5009087;28;20272;-63
2023/07/10 01:03:37;;;;;;;7.07;4.30;;;;;;;22.01;100.00;100235.91;5019399;28;20277;-64
2023/07/10 01:06:24;;;;;;;8.43;4.27;;;;;;;21.90;100.00;100239.59;5012197;28;20189;-65
2023/07/10 01:08:56;;;;;;;8.53;4.60;;;;;;;21.93;100.00;100247.16;5013946;28;20248;-63
2023/07/10 01:11:21;;;;;;;12.63;4.50;;;;;;;22.02;100.00;100245.41;5014186;28;20276;-64
2023/07/10 01:13:50;;;;;;;8.37;4.80;;;;;;;22.01;100.00;100254.22;5012292;28;20184;-64
2023/07/10 01:16:16;;;;;;;6.20;4.40;;;;;;;22.00;100.00;100263.06;5013683;28;20550;-64
2023/07/10 01:18:42;;;;;;;10.77;4.30;;;;;;;21.91;100.00;100277.09;5013356;28;20545;-64
2023/07/10 01:21:26;;;;;;;5.37;4.27;;;;;;;21.77;100.00;100273.22;5005493;28;20304;-64
2023/07/10 01:23:53;;;;;;;6.40;4.07;;;;;;;21.86;100.00;100274.13;5011639;28;20541;-64
2023/07/10 01:26:19;;;;;;;7.13;4.37;;;;;;;21.76;100.00;100285.47;5013414;28;20171;-63
2023/07/10 01:28:45;;;;;;;7.87;4.70;;;;;;;21.70;100.00;100285.28;5012692;28;20392;-63
2023/07/10 01:31:13;;;;;;;7.83;5.10;;;;;;;21.66;100.00;100286.56;5012414;28;20297;-64
2023/07/10 01:33:50;;;;;;;5.27;4.07;;;;;;;21.73;100.00;100292.81;5019821;28;20179;-64
2023/07/10 01:36:18;;;;;;;6.83;4.90;;;;;;;21.82;100.00;100294.53;5010804;28;20558;-64
2023/07/10 01:38:47;;;;;;;6.27;4.80;;;;;;;21.82;100.00;100294.53;4995006;28;20188;-64
2023/07/10 01:41:25;;;;;;;6.33;4.77;;;;;;;21.93;100.00;100288.25;5000076;28;20308;-65
2023/07/10 01:43:50;;;;;;;6.23;4.33;;;;;;;21.91;100.00;100300.66;5018495;28;20174;-64
2023/07/10 01:46:18;;;;;;;6.17;4.33;;;;;;;21.84;100.00;100294.38;5012583;28;20676;-65
2023/07/10 01:48:44;;;;;;;6.70;4.10;;;;;;;21.96;100.00;100289.72;5012282;28;20253;-65
2023/07/10 01:51:10;;;;;;;10.50;4.50;;;;;;;22.00;100.00;100317.25;5011467;28;20260;-65
2023/07/10 01:53:35;;;;;;;9.57;4.50;;;;;;;21.89;100.00;100308.66;5012205;28;20198;-64
2023/07/10 01:56:00;;;;;;;6.20;4.23;;;;;;;21.98;100.00;100304.31;5013115;28;20190;-64
2023/07/10 01:58:26;;;;;;;5.67;4.67;;;;;;;21.99;100.00;100302.50;5013535;28;20182;-64
2023/07/10 02:00:51;;;;;;;7.50;4.30;;;;;;;22.05;100.00;100307.97;5009210;28;20241;-64
2023/07/10 02:03:16;;;;;;;6.50;4.40;;;;;;;21.99;100.00;100305.97;5011951;28;20492;-65
2023/07/10 02:05:41;;;;;;;8.73;4.90;;;;;;;22.02;100.00;100299.59;5012519;28;20179;-65
2023/07/10 02:08:07;;;;;;;7.67;5.43;;;;;;;21.95;100.00;100299.38;5011919;28;20183;-64
2023/07/10 02:10:32;;;;;;;8.23;4.50;;;;;;;21.98;100.00;100291.22;4991700;28;20230;-66
2023/07/10 02:12:57;;;;;;;7.47;5.10;;;;;;;22.00;100.00;100298.91;4996463;28;20232;-65
2023/07/10 02:15:23;;;;;;;13.20;5.77;;;;;;;21.97;100.00;100301.81;4989189;28;20274;-65
2023/07/10 02:17:48;;;;;;;6.40;5.60;;;;;;;21.91;100.00;100303.28;5001417;28;20274;-64
2023/07/10 02:20:13;;;;;;;7.77;5.90;;;;;;;21.93;100.00;100301.34;5001790;28;20182;-65
2023/07/10 02:22:38;;;;;;;7.93;4.97;;;;;;;21.95;100.00;100301.19;4992626;28;20175;-65
2023/07/10 02:25:04;;;;;;;10.77;5.93;;;;;;;21.99;100.00;100286.78;4995343;28;20711;-65
2023/07/10 02:27:29;;;;;;;8.40;4.63;;;;;;;22.05;100.00;100283.56;5012529;28;20222;-64
2023/07/10 02:29:54;;;;;;;7.50;4.47;;;;;;;21.96;100.00;100284.50;4998410;28;20183;-64
2023/07/10 02:32:20;;;;;;;9.57;5.00;;;;;;;21.93;100.00;100286.44;4998381;28;20288;-64
2023/07/10 02:34:45;;;;;;;5.97;4.50;;;;;;;21.91;100.00;100298.03;4992900;28;20179;-64
2023/07/10 02:37:10;;;;;;;5.97;5.33;;;;;;;21.99;100.00;100290.25;4993540;28;20227;-64
2023/07/10 02:39:35;;;;;;;6.57;4.70;;;;;;;22.06;100.00;100293.88;4993726;28;20194;-65
2023/07/10 02:42:01;;;;;;;9.10;5.83;;;;;;;22.03;100.00;100302.06;4998780;28;20232;-64
2023/07/10 02:44:26;;;;;;;10.63;7.30;;;;;;;22.02;100.00;100296.97;4993602;28;20210;-65
2023/07/10 02:46:51;;;;;;;8.50;7.77;;;;;;;21.90;100.00;100297.19;4992312;28;20191;-64
2023/07/10 02:49:16;;;;;;;9.53;7.07;;;;;;;21.99;100.00;100290.25;4992773;28;20188;-66
2023/07/10 02:51:42;;;;;;;11.97;7.27;;;;;;;22.04;100.00;100280.13;4995710;28;20304;-65
2023/07/10 02:54:12;;;;;;;8.10;7.30;;;;;;;21.99;100.00;100281.56;4995117;28;20188;-66
2023/07/10 02:56:37;;;;;;;10.40;7.97;;;;;;;21.91;100.00;100284.94;4991832;28;20187;-65
2023/07/10 02:59:03;;;;;;;13.30;7.57;;;;;;;21.93;100.00;100291.66;4993019;28;20289;-65
2023/07/10 03:01:28;;;;;;;12.27;8.30;;;;;;;21.93;100.00;100296.09;4983924;28;20304;-65
2023/07/10 03:03:53;;;;;;;12.87;8.07;;;;;;;21.83;100.00;100308.44;4991205;28;20526;-65
2023/07/10 03:06:20;;;;;;;14.37;9.00;;;;;;;21.75;100.00;100310.00;4992532;28;20535;-64
2023/07/10 03:08:47;;;;;;;9.33;8.43;;;;;;;21.69;100.00;100312.44;4992077;28;20213;-64
2023/07/10 03:11:13;;;;;;;18.60;9.13;;;;;;;21.70;100.00;100314.06;4984507;28;20234;-65
2023/07/10 03:13:39;;;;;;;11.83;10.47;;;;;;;21.58;100.00;100326.56;4998267;28;20525;-65
2023/07/10 03:16:07;;;;;;;13.53;11.70;;;;;;;21.54;100.00;100335.66;4990172;28;20458;-64
2023/07/10 03:18:32;;;;;;;13.07;11.57;;;;;;;21.46;100.00;100331.19;4991731;28;20209;-65
2023/07/10 03:20:57;;;;;;;16.70;13.83;;;;;;;21.45;100.00;100340.00;4990426;28;20249;-65
2023/07/10 03:23:23;;;;;;;17.87;15.90;;;;;;;21.47;100.00;100342.47;4991263;28;20241;-65
2023/07/10 03:25:49;;;;;;;17.83;15.97;;;;;;;21.44;100.00;100344.41;4990805;28;20498;-64
2023/07/10 03:28:15;;;;;;;18.13;16.00;;;;;;;21.45;100.00;100342.63;5005199;28;20256;-65
2023/07/10 03:30:40;;;;;;;17.00;15.37;;;;;;;21.53;100.00;100352.34;4967271;28;20237;-63
2023/07/10 03:33:06;;;;;;;17.93;15.00;;;;;;;21.56;100.00;100354.69;4990514;28;20187;-63
2023/07/10 03:35:32;;;;;;;18.07;15.57;;;;;;;21.47;100.00;100359.00;4992466;28;20190;-64
2023/07/10 03:37:57;;;;;;;18.63;16.17;;;;;;;21.44;100.00;100365.31;4990852;28;20199;-64
2023/07/10 03:40:22;;;;;;;19.43;17.57;;;;;;;21.28;100.00;100366.00;4984602;28;20655;-64
2023/07/10 03:42:48;;;;;;;19.37;17.33;;;;;;;21.26;100.00;100360.09;5005571;28;20203;-64
2023/07/10 03:45:13;;;;;;;19.70;17.70;;;;;;;21.33;100.00;100369.97;4991202;28;20262;-64
2023/07/10 03:47:38;;;;;;;19.30;17.30;;;;;;;21.36;100.00;100374.88;4993647;28;20199;-64
2023/07/10 03:50:05;;;;;;;18.33;16.33;;;;;;;21.39;100.00;100380.66;4983735;28;20326;-65
2023/07/10 03:52:30;;;;;;;20.37;17.37;;;;;;;21.39;100.00;100377.22;5006414;28;20226;-65
2023/07/10 03:54:56;;;;;;;19.00;17.10;;;;;;;21.36;100.00;100394.03;4990532;28;20190;-64
2023/07/10 03:57:21;;;;;;;23.17;18.40;;;;;;;21.39;100.00;100385.06;4992010;28;20525;-64
2023/07/10 03:59:46;;;;;;;21.87;18.57;;;;;;;21.41;100.00;100385.75;4991347;28;20218;-64
2023/07/10 04:02:11;;;;;;;21.40;19.10;;;;;;;21.42;100.00;100393.47;4998059;28;20569;-70
2023/07/10 04:04:37;;;;;;;20.03;17.67;;;;;;;21.40;100.00;100394.56;4992372;28;20193;-55
2023/07/10 04:07:02;;;;;;;21.87;19.87;;;;;;;21.39;100.00;100396.34;4993105;28;20644;-57
2023/07/10 04:09:27;;;;;;;22.73;20.43;;;;;;;21.43;100.00;100399.50;4995611;28;20183;-55
2023/07/10 04:11:52;;;;;;;20.50;18.33;;;;;;;21.45;100.00;100403.63;4994444;28;20226;-56
2023/07/10 04:14:18;;;;;;;21.07;18.77;;;;;;;21.55;100.00;100395.69;4993590;28;20546;-56
2023/07/10 04:16:43;;;;;;;20.73;18.77;;;;;;;21.70;100.00;100392.63;4991709;28;20184;-57
2023/07/10 04:19:09;;;;;;;20.60;18.60;;;;;;;21.80;100.00;100390.75;4991840;28;20631;-55
2023/07/10 04:21:34;;;;;;;22.27;20.10;;;;;;;21.93;100.00;100388.56;4993671;28;20226;-55
2023/07/10 04:24:00;;;;;;;22.70;20.27;;;;;;;21.97;100.00;100389.09;4994305;28;20542;-56
2023/07/10 04:26:32;;;;;;;21.80;19.60;;;;;;;21.89;100.00;100396.88;4995496;28;20241;-55
2023/07/10 04:28:59;;;;;;;24.63;22.00;;;;;;;21.85;100.00;100387.69;5009828;28;20280;-56
2023/07/10 04:31:25;;;;;;;24.30;20.77;;;;;;;21.90;100.00;100380.19;5001881;28;20318;-55
2023/07/10 04:33:52;;;;;;;24.87;22.27;;;;;;;22.06;100.00;100385.53;4998623;28;20202;-55
2023/07/10 04:36:18;;;;;;;23.03;20.63;;;;;;;22.17;100.00;100400.22;5002509;28;20253;-56
2023/07/10 04:38:43;;;;;;;24.23;21.30;;;;;;;22.19;100.00;100405.28;5001940;28;20179;-55
2023/07/10 04:41:12;;;;;;;23.50;21.37;;;;;;;22.19;100.00;100407.91;4994456;28;20663;-55
2023/07/10 04:43:38;;;;;;;25.07;22.63;;;;;;;22.39;100.00;100414.66;4983655;28;20180;-56
2023/07/10 04:46:05;;;;;;;22.83;20.63;;;;;;;22.33;100.00;100419.66;5003885;28;20641;-56
2023/07/10 04:48:32;;;;;;;22.93;20.57;;;;;;;22.46;100.00;100429.75;4992845;28;20237;-55
2023/07/10 04:51:02;;;;;;;22.20;19.87;;;;;;;22.59;100.00;100432.81;4983593;28;20231;-55
2023/07/10 04:53:28;;;;;;;21.80;19.53;;;;;;;22.78;100.00;100430.94;4990495;28;20219;-56
2023/07/10 04:55:54;;;;;;;21.53;19.33;;;;;;;22.84;100.00;100431.13;4989841;28;20203;-57
2023/07/10 04:58:22;;;;;;;20.10;18.07;;;;;;;23.06;100.00;100436.84;4990148;28;20306;-55
2023/07/10 05:00:54;;;;;;;20.67;18.27;;;;;;;23.23;100.00;100439.53;4983123;28;21012;-57
2023/07/10 05:03:19;;;;;;;21.03;18.93;;;;;;;23.36;100.00;100445.97;4990308;28;20175;-55
2023/07/10 05:05:55;;;;;;;22.27;20.00;;;;;;;23.34;100.00;100450.59;4990947;28;20709;-56
2023/07/10 05:08:22;;;;;;;23.10;20.10;;;;;;;23.39;100.00;100452.72;4990085;28;20214;-55
2023/07/10 05:10:50;;;;;;;21.10;19.00;;;;;;;23.51;100.00;100450.63;4983029;28;20234;-58
2023/07/10 05:13:19;;;;;;;21.37;19.17;;;;;;;23.48;100.00;100451.78;4994355;28;20368;-55
2023/07/10 05:15:45;;;;;;;20.97;18.83;;;;;;;23.43;100.00;100461.94;4995686;28;20195;-56
2023/07/10 05:18:11;;;;;;;21.80;19.53;;;;;;;23.41;100.00;100460.44;4994473;28;20171;-55
2023/07/10 05:20:38;;;;;;;21.00;18.97;;;;;;;23.46;100.00;100456.34;4989329;28;20237;-55
2023/07/10 05:23:04;;;;;;;22.17;20.13;;;;;;;23.57;100.00;100459.66;4992736;28;20584;-54
2023/07/10 05:25:29;;;;;;;23.63;20.27;;;;;;;23.64;100.00;100458.03;4994713;28;20183;-55
2023/07/10 05:27:54;;;;;;;22.93;20.80;;;;;;;24.05;100.00;100463.41;5006549;28;20214;-55
2023/07/10 05:30:20;;;;;;;21.47;19.57;;;;;;;24.15;100.00;100463.22;4987758;28;20270;-55
2023/07/10 05:32:45;;;;;;;24.67;19.30;;;;;;;24.17;100.00;100472.63;5007206;28;20211;-55
2023/07/10 05:35:10;;;;;;;20.63;18.67;;;;;;;24.23;100.00;100471.13;4994044;28;20258;-55
2023/07/10 05:37:35;;;;;;;24.10;21.80;;;;;;;24.29;100.00;100477.53;4994336;28;20613;-55
2023/07/10 05:40:01;;;;;;;23.70;21.20;;;;;;;24.18;100.00;100479.50;4994352;28;20186;-55
2023/07/10 05:42:26;;;;;;;20.80;18.80;;;;;;;24.47;100.00;100469.47;4999484;28;20263;-57
2023/07/10 05:44:51;;;;;;;22.80;20.43;;;;;;;24.60;100.00;100468.97;4993833;28;20603;-55
2023/07/10 05:47:16;;;;;;;25.23;22.63;;;;;;;24.71;100.00;100476.53;4994698;28;20270;-55
2023/07/10 05:49:42;;;;;;;23.02;20.92;;;;;;;24.80;100.00;100480.78;4994138;28;20524;-55
2023/07/10 05:52:07;;;;;;;23.05;20.65;;;;;;;24.92;100.00;100478.63;4985849;28;20230;-57
2023/07/10 05:54:32;;;;;;;22.55;20.65;;;;;;;24.93;100.00;100480.28;4993702;28;20234;-56
2023/07/10 05:56:59;;;;;;;23.13;21.00;;;;;;;24.84;100.00;100480.47;4994017;28;20194;-65
2023/07/10 05:59:25;;;;;;;26.48;23.80;;;;;;;24.93;100.00;100475.00;5010263;28;20182;-62
2023/07/10 06:01:51;;;;;;;25.83;23.25;;;;;;;24.85;100.00;100476.84;5008250;28;20238;-64
2023/07/10 06:04:16;;;;;;;23.90;21.35;;;;;;;24.93;100.00;100482.06;5011085;28;20183;-64
2023/07/10 06:06:41;;;;;;;24.03;21.93;;;;;;;25.40;100.00;100476.03;5012754;28;20186;-64
2023/07/10 06:09:07;;;;;;;23.60;21.40;;;;;;;25.65;100.00;100473.25;5007243;28;20179;-65
2023/07/10 06:11:32;;;;;;;24.70;21.92;;;;;;;25.66;100.00;100468.81;4994333;28;20793;-66
2023/07/10 06:13:57;;;;;;;24.20;21.95;;;;;;;25.68;100.00;100472.91;5001427;28;20197;-65
2023/07/10 06:16:23;;;;;;;26.17;23.60;;;;;;;25.76;100.00;100480.75;5005017;28;20186;-64
2023/07/10 06:18:48;;;;;;;24.15;21.80;;;;;;;26.07;100.00;100472.00;5004552;28;20171;-64
2023/07/10 06:21:13;;;;;;;23.13;20.77;;;;;;;26.52;100.00;100472.13;4985653;28;20226;-64
2023/07/10 06:23:38;;;;;;;23.98;20.58;;;;;;;26.92;100.00;100476.34;5004678;28;20634;-64
2023/07/10 06:26:04;;;;;;;23.45;21.02;;;;;;;27.25;100.00;100492.63;4992804;28;20195;-64
2023/07/10 06:28:31;;;;;;;20.90;18.95;;;;;;;27.83;100.00;100495.34;5009454;28;20222;-65
2023/07/10 06:31:01;;;;;;;23.40;20.98;;;;;;;27.92;100.00;100488.13;5004957;28;20293;-62
2023/07/10 06:33:28;;;;;;;22.05;19.80;;;;;;;28.16;100.00;100497.53;5020237;28;20205;-62
2023/07/10 06:35:54;;;;;;;23.40;21.17;;;;;;;28.42;100.00;100503.22;5011146;28;20183;-63
2023/07/10 06:38:19;;;;;;;24.48;20.27;;;;;;;28.11;100.00;100501.75;5002111;28;20213;-62
2023/07/10 06:40:49;;;;;;;22.63;20.42;;;;;;;28.64;100.00;100507.47;5006336;28;20234;-62
2023/07/10 06:43:16;;;;;;;20.75;18.85;;;;;;;29.16;97.15;100496.56;5017540;28;20190;-63
2023/07/10 06:45:43;;;;;;;21.48;19.45;;;;;;;29.36;96.49;100499.34;5010817;28;20562;-62
2023/07/10 06:48:09;;;;;;;22.10;20.08;;;;;;;29.06;97.14;100498.78;5008780;28;20187;-61
2023/07/10 06:50:35;;;;;;;20.23;18.48;;;;;;;29.32;97.89;100503.41;4994947;28;20237;-62
2023/07/10 06:53:00;;;;;;;22.52;17.88;;;;;;;29.65;95.78;100496.59;5008516;28;20186;-63
2023/07/10 06:55:25;;;;;;;19.63;17.85;;;;;;;30.43;89.91;100499.53;5009909;28;20186;-63
2023/07/10 06:57:51;;;;;;;18.90;17.20;;;;;;;30.71;88.46;100501.16;5006899;28;20630;-63
2023/07/10 07:00:18;;;;;;;20.25;18.52;;;;;;;31.34;85.31;100512.22;4985390;28;20191;-63
2023/07/10 07:02:43;;;;;;;19.50;17.60;;;;;;;31.26;84.09;100515.94;5011833;28;20175;-63
2023/07/10 07:05:09;;;;;;;18.60;16.80;;;;;;;31.70;83.07;100518.81;5003415;28;20773;-64
2023/07/10 07:07:36;;;;;;;18.90;16.20;;;;;;;32.51;78.11;100519.03;5004954;28;20187;-63
2023/07/10 07:10:01;;;;;;;16.65;14.95;;;;;;;32.74;75.76;100520.28;5005021;28;20238;-63
2023/07/10 07:12:27;;;;;;;18.73;17.02;;;;;;;32.37;76.34;100522.88;4992996;28;20640;-62
2023/07/10 07:14:52;;;;;;;17.40;15.80;;;;;;;33.05;70.73;100524.66;4987447;28;20183;-64
2023/07/10 07:17:18;;;;;;;17.63;15.85;;;;;;;32.99;71.98;100533.56;5010002;28;20226;-63
2023/07/10 07:19:45;;;;;;;1008.85;98.72;;;;;;;33.05;72.49;100538.00;5003501;28;20171;-63
2023/07/10 07:22:11;;;;;;;15.65;14.25;;;;;;;33.03;71.61;100528.59;4997535;28;20356;-62
2023/07/10 07:24:36;;;;;;;16.10;14.80;;;;;;;32.24;73.58;100534.44;5006765;28;20203;-62
2023/07/10 07:27:02;;;;;;;16.85;14.80;;;;;;;30.75;83.38;100536.91;5005544;28;20233;-62
2023/07/10 07:29:28;;;;;;;15.15;13.75;;;;;;;30.97;84.27;100535.81;5000602;28;20187;-63
2023/07/10 07:31:54;;;;;;;16.08;14.32;;;;;;;30.08;88.49;100534.22;4961852;28;20590;-60
2023/07/10 07:34:19;;;;;;;15.85;14.32;;;;;;;29.61;93.32;100538.59;4974358;28;20628;-62
2023/07/10 07:36:45;;;;;;;15.30;13.93;;;;;;;29.65;93.51;100539.81;4974318;28;20298;-61
2023/07/10 07:39:10;;;;;;;17.00;15.32;;;;;;;30.10;91.98;100528.72;4973929;28;20184;-62
2023/07/10 07:41:35;;;;;;;16.95;14.65;;;;;;;30.70;88.19;100533.22;4988195;28;20227;-62
2023/07/10 07:44:01;;;;;;;15.35;13.65;;;;;;;30.20;89.06;100533.63;4991787;28;20256;-63
2023/07/10 07:46:27;;;;;;;13.77;12.48;;;;;;;30.59;86.94;100527.53;4993944;28;20252;-61
2023/07/10 07:48:53;;;;;;;14.32;12.95;;;;;;;31.24;83.88;100520.66;4993058;28;20620;-63
2023/07/10 07:51:19;;;;;;;13.18;11.88;;;;;;;31.89;80.98;100533.00;4994632;28;20230;-63
2023/07/10 07:53:44;;;;;;;13.68;12.45;;;;;;;32.13;78.91;100522.63;4997950;28;20191;-63
2023/07/10 07:56:10;;;;;;;14.18;12.65;;;;;;;33.31;70.32;100522.75;4991586;28;20186;-63
2023/07/10 07:58:36;;;;;;;12.05;10.77;;;;;;;33.08;72.02;100524.25;4992352;28;20273;-63
2023/07/10 08:01:02;;;;;;;12.55;11.48;;;;;;;32.60;73.73;100514.25;4993382;28;20297;-63
2023/07/10 08:03:28;;;;;;;11.55;10.45;;;;;;;33.03;71.06;100526.75;5003422;28;20191;-64
2023/07/10 08:05:54;;;;;;;15.35;13.07;;;;;;;32.27;74.04;100520.72;4998798;28;20209;-62
2023/07/10 08:08:19;;;;;;;14.13;12.68;;;;;;;33.36;69.70;100524.75;4995838;28;20187;-63
2023/07/10 08:10:47;;;;;;;12.27;10.35;;;;;;;34.86;62.76;100522.00;4990990;28;20671;-62
2023/07/10 08:13:14;;;;;;;11.32;9.93;;;;;;;35.66;54.42;100530.25;4996968;28;20254;-63
2023/07/10 08:15:40;;;;;;;9.85;8.20;;;;;;;36.93;46.75;100529.00;4991312;28;20274;-62
2023/07/10 08:18:06;;;;;;;689.85;72.57;;;;;;;36.37;46.96;100536.22;4991585;28;20600;-62
2023/07/10 08:20:32;;;;;;;10.38;9.48;;;;;;;35.55;49.32;100531.09;4985105;28;20234;-62
2023/07/10 08:22:58;;;;;;;12.45;10.02;;;;;;;34.83;55.95;100530.47;4989866;28;20194;-63
2023/07/10 08:25:23;;;;;;;10.20;9.23;;;;;;;33.93;63.29;100535.06;5000432;28;20197;-62
2023/07/10 08:27:49;;;;;;;9.70;8.77;;;;;;;33.46;65.18;100533.03;5003787;28;20218;-63
2023/07/10 08:30:15;;;;;;;12.60;9.70;;;;;;;32.94;68.91;100528.88;4997819;28;20584;-63
2023/07/10 08:32:40;;;;;;;9.73;8.75;;;;;;;32.64;71.70;100526.13;4994314;28;20202;-63
2023/07/10 08:35:07;;;;;;;8.98;8.13;;;;;;;33.09;68.14;100533.84;4988595;28;20191;-63
2023/07/10 08:37:33;;;;;;;9.07;8.18;;;;;;;31.60;75.15;100531.75;4994206;28;20191;-62
2023/07/10 08:39:58;;;;;;;10.10;7.75;;;;;;;30.66;81.65;100527.50;4991793;28;20188;-62
2023/07/10 08:42:28;;;;;;;10.80;8.50;;;;;;;30.04;86.00;100538.31;4996852;28;20231;-62
2023/07/10 08:44:55;;;;;;;9.10;8.20;;;;;;;30.06;87.08;100538.09;5002264;28;20187;-63
2023/07/10 08:47:28;;;;;;;10.32;8.88;;;;;;;29.70;90.43;100537.38;5002090;28;20191;-62
2023/07/10 08:50:03;;;;;;;8.52;7.78;;;;;;;30.73;85.05;100538.94;4996151;28;20191;-63
2023/07/10 08:52:47;;;;;;;9.23;7.90;;;;;;;31.68;78.57;100535.00;4993385;28;20313;-62
2023/07/10 08:55:17;;;;;;;11.70;8.10;;;;;;;32.19;74.18;100535.06;5008971;28;20191;-65
2023/07/10 08:57:47;;;;;;;9.40;7.63;;;;;;;33.24;67.76;100541.44;5006209;28;20946;-62
2023/07/10 09:00:15;;;;;;;11.10;8.13;;;;;;;34.70;60.40;100552.09;4990392;28;20186;-63
2023/07/10 09:02:53;;;;;;;13.57;7.95;;;;;;;33.88;62.77;100549.09;4994205;28;20226;-61
2023/07/10 09:05:22;;;;;;;11.13;7.40;;;;;;;34.19;58.88;100543.72;4994986;28;20705;-64
2023/07/10 09:07:49;;;;;;;13.00;6.38;;;;;;;34.09;61.85;100553.06;4982451;28;20661;-62
2023/07/10 09:10:46;;;;;;;9.40;6.63;;;;;;;33.13;66.38;100551.03;4986235;28;20187;-61
2023/07/10 09:13:16;;;;;;;10.98;6.47;;;;;;;32.77;69.20;100543.81;4993700;28;20326;-62
2023/07/10 09:15:49;;;;;;;7.28;6.60;;;;;;;32.16;69.95;100546.97;4994315;28;20219;-62
2023/07/10 09:18:33;;;;;;;11.00;6.70;;;;;;;33.44;63.90;100545.75;4994765;28;20221;-62
2023/07/10 09:21:00;;;;;;;9.68;6.30;;;;;;;35.17;54.41;100543.22;4983457;28;20230;-62
2023/07/10 09:23:29;;;;;;;7.70;6.90;;;;;;;35.17;55.88;100548.56;5004660;28;20180;-62
2023/07/10 09:25:58;;;;;;;7.13;6.22;;;;;;;34.05;57.00;100546.59;5005115;28;20207;-61
2023/07/10 09:28:25;;;;;;;9.88;6.15;;;;;;;32.35;69.28;100550.53;5007745;28;20251;-61
2023/07/10 09:31:20;;;;;;;9.77;6.88;;;;;;;31.67;73.50;100549.31;4993165;28;20318;-63
2023/07/10 09:33:51;;;;;;;12.90;6.75;;;;;;;32.42;69.44;100541.66;5000455;28;20207;-63
2023/07/10 09:36:19;;;;;;;6.50;5.88;;;;;;;32.91;66.32;100539.16;4999549;28;20184;-62
2023/07/10 09:38:46;;;;;;;8.63;6.65;;;;;;;34.10;57.71;100543.22;5001725;28;20549;-62
2023/07/10 09:41:17;;;;;;;7.78;6.75;;;;;;;33.68;58.69;100546.69;5000115;28;20231;-63
2023/07/10 09:43:58;;;;;;;13.93;8.18;;;;;;;32.28;68.53;100538.31;5010976;28;20201;-64
2023/07/10 09:46:29;;;;;;;10.38;6.95;;;;;;;32.01;70.68;100533.94;4993964;28;20673;-64
2023/07/10 09:48:57;;;;;;;9.30;7.15;;;;;;;31.38;74.65;100538.19;5000570;28;20186;-63
2023/07/10 09:51:23;;;;;;;7.55;6.40;;;;;;;32.28;72.54;100533.00;4997715;28;20248;-64
2023/07/10 09:53:52;;;;;;;8.68;6.20;;;;;;;33.89;60.92;100539.22;4992107;28;20278;-62
2023/07/10 09:56:35;;;;;;;10.57;6.00;;;;;;;34.99;52.15;100534.31;5008396;28;20193;-63
2023/07/10 09:59:00;;;;;;;7.85;6.85;;;;;;;33.92;57.85;100541.44;4987438;28;20183;-63
2023/07/10 10:01:30;;;;;;;9.80;6.78;;;;;;;33.56;59.40;100529.81;4994502;28;20313;-62
2023/07/10 10:03:56;;;;;;;7.57;6.68;;;;;;;32.78;65.94;100526.81;4997743;28;20230;-62
2023/07/10 10:06:29;;;;;;;12.45;6.57;;;;;;;33.94;59.39;100540.16;4993271;28;20185;-61
2023/07/10 10:08:55;;;;;;;10.05;6.38;;;;;;;35.88;47.58;100531.47;4993591;28;20655;-62
2023/07/10 10:11:35;;;;;;;7.30;6.47;;;;;;;37.61;41.26;100530.53;4993694;28;20230;-63
2023/07/10 10:14:05;;;;;;;8.77;6.72;;;;;;;38.74;37.85;100533.28;4996501;28;20273;-63
2023/07/10 10:16:40;;;;;;;8.20;6.45;;;;;;;36.65;41.36;100527.28;5002317;28;20187;-62
2023/07/10 10:19:18;;;;;;;7.63;5.50;;;;;;;36.33;44.46;100520.66;4993464;28;20174;-63
2023/07/10 10:21:43;;;;;;;10.05;6.07;;;;;;;37.94;40.53;100532.19;4994366;28;20219;-64
2023/07/10 10:24:11;;;;;;;6.13;5.40;;;;;;;36.95;40.03;100518.84;5009104;28;20349;-64
2023/07/10 10:26:59;;;;;;;6.38;5.38;;;;;;;36.50;41.53;100520.63;4999028;28;20194;-63
2023/07/10 10:29:46;;;;;;;5.32;4.93;;;;;;;37.21;39.29;100516.44;4996485;28;20198;-62
2023/07/10 10:32:30;;;;;;;5.47;4.93;;;;;;;35.66;41.56;100521.41;4998314;28;20222;-66
2023/07/10 10:35:10;;;;;;;6.93;5.28;;;;;;;34.08;47.71;100516.75;5011004;28;20198;-66
2023/07/10 10:37:56;;;;;;;5.68;5.18;;;;;;;33.91;50.24;100502.44;4983800;28;20743;-64
2023/07/10 10:40:26;;;;;;;7.90;5.07;;;;;;;35.11;45.91;100510.22;5001559;28;20222;-65
2023/07/10 10:43:02;;;;;;;7.80;5.38;;;;;;;33.73;51.17;100520.13;5004117;28;20186;-66
2023/07/10 10:45:37;;;;;;;5.82;5.22;;;;;;;34.06;49.55;100505.50;4988329;28;20186;-66
2023/07/10 10:48:15;;;;;;;7.35;4.85;;;;;;;34.46;48.98;100505.88;4991909;28;20194;-66
2023/07/10 10:51:05;;;;;;;5.35;4.53;;;;;;;34.08;46.40;100497.25;4978852;28;20253;-62
2023/07/10 10:53:41;;;;;;;5.68;4.57;;;;;;;33.45;53.40;100502.91;4998538;28;20546;-62
2023/07/10 10:56:22;;;;;;;5.88;4.57;;;;;;;32.51;52.72;100497.75;5009939;28;20558;-63
2023/07/10 10:59:18;;;;;;;6.40;4.68;;;;;;;32.39;53.13;100496.84;5012109;28;20634;-63
2023/07/10 11:01:53;;;;;;;7.75;6.13;;;;;;;31.64;57.15;100487.78;5005335;28;20214;-62
2023/07/10 11:04:34;;;;;;;6.75;5.30;;;;;;;31.20;58.86;100476.94;5010122;28;20178;-63
2023/07/10 11:07:07;;;;;;;6.63;4.82;;;;;;;31.07;59.13;100477.78;5001390;28;20202;-63
2023/07/10 11:09:42;;;;;;;6.32;5.07;;;;;;;30.69;60.27;100478.50;5009294;28;20593;-62
2023/07/10 11:12:15;;;;;;;5.97;4.90;;;;;;;30.86;63.11;100473.53;5016722;28;20264;-61
2023/07/10 11:14:42;;;;;;;7.03;4.97;;;;;;;30.94;60.82;100475.16;5000277;28;20214;-63
2023/07/10 11:17:12;;;;;;;6.38;5.78;;;;;;;31.25;61.53;100470.97;5004161;28;20237;-63